Time;durP1;ratioP1;P1;durP2;ratioP2;P2;SDS_P1;SDS_P2;PMS_P1;PMS_P2;Temp;Humidity;BMP_temperature;BMP_pressure;BME280_temperature;BME280_humidity;BME280_pressure;Samples;Min_cycle;Max_cycle;Signal;HPM_P1;HPM_P2
2022/05/26 00:01:25;;;;;;;2.25;2.05;;;;;;;;;;5009611;28;20363;-71
2022/05/26 00:03:51;;;;;;;5.70;2.47;;;;;;;;;;5007739;28;20033;-71
2022/05/26 00:06:20;;;;;;;12.77;3.15;;;;;;;;;;5007919;28;20026;-71
2022/05/26 00:08:46;;;;;;;3.38;2.13;;;;;;;;;;5008968;28;20029;-71
2022/05/26 00:11:18;;;;;;;2.72;2.05;;;;;;;;;;5007750;28;20091;-70
2022/05/26 00:13:44;;;;;;;2.22;2.03;;;;;;;;;;5007524;28;20470;-70
2022/05/26 00:16:11;;;;;;;3.10;2.30;;;;;;;;;;5008874;28;20057;-71
2022/05/26 00:18:37;;;;;;;2.40;2.20;;;;;;;;;;5009058;28;20485;-72
2022/05/26 00:21:04;;;;;;;8.95;2.88;;;;;;;;;;5009291;28;20083;-70
2022/05/26 00:23:30;;;;;;;2.88;2.53;;;;;;;;;;5028872;28;20112;-71
2022/05/26 00:25:56;;;;;;;3.45;2.28;;;;;;;;;;5028767;28;20175;-70
2022/05/26 00:28:21;;;;;;;9.52;2.60;;;;;;;;;;5028797;28;20246;-72
2022/05/26 00:30:48;;;;;;;2.92;2.65;;;;;;;;;;5027062;28;20029;-72
2022/05/26 00:33:16;;;;;;;3.05;2.53;;;;;;;;;;5027294;28;20120;-72
2022/05/26 00:35:41;;;;;;;6.22;2.35;;;;;;;;;;5027598;28;20442;-71
2022/05/26 00:38:09;;;;;;;4.57;2.60;;;;;;;;;;5030705;28;20171;-70
2022/05/26 00:40:36;;;;;;;5.85;2.55;;;;;;;;;;5030545;28;20065;-70
2022/05/26 00:43:04;;;;;;;3.15;2.58;;;;;;;;;;5030649;28;20026;-71
2022/05/26 00:45:51;;;;;;;5.53;2.70;;;;;;;;;;5032101;28;20028;-71
2022/05/26 00:48:22;;;;;;;3.30;2.78;;;;;;;;;;5032347;28;20026;-71
2022/05/26 00:50:55;;;;;;;4.50;2.40;;;;;;;;;;5030761;28;20437;-72
2022/05/26 00:53:29;;;;;;;7.10;2.65;;;;;;;;;;5032321;28;20033;-72
2022/05/26 00:56:04;;;;;;;9.20;2.63;;;;;;;;;;5030526;28;20029;-71
2022/05/26 00:58:35;;;;;;;2.90;2.20;;;;;;;;;;5030485;28;20402;-71
2022/05/26 01:01:02;;;;;;;2.92;2.45;;;;;;;;;;5030444;28;20037;-71
2022/05/26 01:03:35;;;;;;;2.75;2.42;;;;;;;;;;5031870;28;20034;-71
2022/05/26 01:06:10;;;;;;;4.90;3.10;;;;;;;;;;5030519;28;20477;-72
2022/05/26 01:08:58;;;;;;;4.97;3.00;;;;;;;;;;5030478;28;20025;-73
2022/05/26 01:11:27;;;;;;;4.40;2.88;;;;;;;;;;5031751;28;20030;-71
2022/05/26 01:14:00;;;;;;;3.53;2.92;;;;;;;;;;5030242;28;20040;-71
2022/05/26 01:16:52;;;;;;;3.42;2.58;;;;;;;;;;5029977;28;20056;-71
2022/05/26 01:19:39;;;;;;;3.75;2.70;;;;;;;;;;5030206;28;20026;-71
2022/05/26 01:22:29;;;;;;;5.20;3.00;;;;;;;;;;5031256;28;20021;-71
2022/05/26 01:25:33;;;;;;;3.95;2.60;;;;;;;;;;5030034;28;20125;-71
2022/05/26 01:28:23;;;;;;;3.63;2.15;;;;;;;;;;4999373;28;20393;-71
2022/05/26 01:30:57;;;;;;;4.22;2.78;;;;;;;;;;5029810;28;20322;-71
2022/05/26 01:33:37;;;;;;;3.50;2.75;;;;;;;;;;5029907;28;20029;-70
2022/05/26 01:36:28;;;;;;;3.70;3.35;;;;;;;;;;5030076;28;20079;-71
2022/05/26 01:39:03;;;;;;;5.70;2.63;;;;;;;;;;5031304;28;20041;-69
2022/05/26 01:41:59;;;;;;;4.43;3.65;;;;;;;;;;5031176;28;20029;-70
2022/05/26 01:44:46;;;;;;;3.90;2.45;;;;;;;;;;5031096;28;20195;-71
2022/05/26 01:47:24;;;;;;;3.42;2.72;;;;;;;;;;5031022;28;20025;-71
2022/05/26 01:50:10;;;;;;;7.35;3.15;;;;;;;;;;5029481;28;20037;-71
2022/05/26 01:52:50;;;;;;;4.57;2.80;;;;;;;;;;5029333;28;20040;-71
2022/05/26 01:55:25;;;;;;;2.75;2.55;;;;;;;;;;5031141;28;20416;-72
2022/05/26 01:58:33;;;;;;;4.18;2.72;;;;;;;;;;5029238;28;20024;-71
2022/05/26 02:01:03;;;;;;;4.85;2.40;;;;;;;;;;5021919;28;20276;-71
2022/05/26 02:03:32;;;;;;;2.97;2.78;;;;;;;;;;5029207;28;20041;-71
2022/05/26 02:06:34;;;;;;;4.90;3.00;;;;;;;;;;5029216;28;20041;-72
2022/05/26 02:09:10;;;;;;;3.50;2.75;;;;;;;;;;5026382;28;20493;-71
2022/05/26 02:11:55;;;;;;;6.00;2.88;;;;;;;;;;5029258;28;20033;-72
2022/05/26 02:14:50;;;;;;;3.10;2.60;;;;;;;;;;5029025;28;20091;-71
2022/05/26 02:17:30;;;;;;;3.05;2.63;;;;;;;;;;5024491;28;20049;-71
2022/05/26 02:20:14;;;;;;;5.55;3.00;;;;;;;;;;5030510;28;20040;-72
2022/05/26 02:22:49;;;;;;;7.22;3.33;;;;;;;;;;5027911;28;20033;-71
2022/05/26 02:25:19;;;;;;;4.65;2.85;;;;;;;;;;5029091;28;20397;-71
2022/05/26 02:27:46;;;;;;;6.00;3.00;;;;;;;;;;5030212;28;20021;-70
2022/05/26 02:30:13;;;;;;;2.92;2.58;;;;;;;;;;5030134;28;20029;-72
2022/05/26 02:32:45;;;;;;;4.57;2.67;;;;;;;;;;5028626;28;20052;-71
2022/05/26 02:35:20;;;;;;;3.95;2.72;;;;;;;;;;5028900;28;20030;-71
2022/05/26 02:37:48;;;;;;;11.30;3.30;;;;;;;;;;5028451;28;20021;-71
2022/05/26 02:40:15;;;;;;;3.20;2.90;;;;;;;;;;5030483;28;20026;-71
2022/05/26 02:43:02;;;;;;;3.85;3.20;;;;;;;;;;5028455;28;20017;-71
2022/05/26 02:45:31;;;;;;;4.50;2.70;;;;;;;;;;5028738;28;20116;-70
2022/05/26 02:48:26;;;;;;;7.22;2.95;;;;;;;;;;5028569;28;20022;-70
2022/05/26 02:50:51;;;;;;;3.30;2.97;;;;;;;;;;5029608;28;20485;-70
2022/05/26 02:53:31;;;;;;;3.65;3.17;;;;;;;;;;5028436;28;20056;-70
2022/05/26 02:56:35;;;;;;;3.97;3.13;;;;;;;;;;5029440;28;20056;-71
2022/05/26 02:59:25;;;;;;;8.18;3.33;;;;;;;;;;4986171;28;20038;-71
2022/05/26 03:02:20;;;;;;;7.75;3.85;;;;;;;;;;4987485;28;20034;-70
2022/05/26 03:05:11;;;;;;;3.85;2.85;;;;;;;;;;5007774;28;20040;-71
2022/05/26 03:07:42;;;;;;;5.00;2.63;;;;;;;;;;5028263;28;20423;-72
2022/05/26 03:10:08;;;;;;;6.63;2.92;;;;;;;;;;5028291;28;20040;-71
2022/05/26 03:12:36;;;;;;;2.75;2.50;;;;;;;;;;5027974;28;20029;-71
2022/05/26 03:15:04;;;;;;;5.45;3.05;;;;;;;;;;5029254;28;20025;-71
2022/05/26 03:17:32;;;;;;;7.70;2.80;;;;;;;;;;5027435;28;20060;-71
2022/05/26 03:19:57;;;;;;;5.75;3.10;;;;;;;;;;5027929;28;20041;-72
2022/05/26 03:22:23;;;;;;;2.58;2.13;;;;;;;;;;5027754;28;20369;-73
2022/05/26 03:24:51;;;;;;;3.83;2.88;;;;;;;;;;5029285;28;20124;-71
2022/05/26 03:27:16;;;;;;;3.10;2.63;;;;;;;;;;5029619;28;20028;-70
2022/05/26 03:29:42;;;;;;;4.43;2.72;;;;;;;;;;5027754;28;20025;-70
2022/05/26 03:32:08;;;;;;;4.28;2.90;;;;;;;;;;5029363;28;20478;-69
2022/05/26 03:42:48;;;;;;;7.65;2.75;;;;;;;;;;5028949;28;20075;-70
2022/05/26 03:45:20;;;;;;;4.20;2.60;;;;;;;;;;5028880;28;20034;-71
2022/05/26 03:47:46;;;;;;;6.47;2.67;;;;;;;;;;5027661;28;20032;-71
2022/05/26 03:50:12;;;;;;;3.35;3.05;;;;;;;;;;5027602;28;20112;-71
2022/05/26 03:52:38;;;;;;;3.75;3.45;;;;;;;;;;5027788;28;20021;-71
2022/05/26 03:55:04;;;;;;;6.00;2.88;;;;;;;;;;5027585;28;20079;-70
2022/05/26 03:57:31;;;;;;;6.78;2.60;;;;;;;;;;5027644;28;20397;-71
2022/05/26 03:59:57;;;;;;;6.25;3.58;;;;;;;;;;5027731;28;20409;-72
2022/05/26 04:02:23;;;;;;;3.33;2.85;;;;;;;;;;5029114;28;20080;-70
2022/05/26 04:04:49;;;;;;;3.67;2.78;;;;;;;;;;5027271;28;20075;-70
2022/05/26 04:07:15;;;;;;;9.80;3.20;;;;;;;;;;5027697;28;20099;-71
2022/05/26 04:09:41;;;;;;;3.10;2.83;;;;;;;;;;5029576;28;20477;-75
2022/05/26 04:12:07;;;;;;;5.15;3.05;;;;;;;;;;5031056;28;20025;-75
2022/05/26 04:14:34;;;;;;;2.80;2.60;;;;;;;;;;5032752;28;20451;-75
2022/05/26 04:16:59;;;;;;;13.88;3.08;;;;;;;;;;5031103;28;20045;-75
2022/05/26 04:19:25;;;;;;;2.45;2.25;;;;;;;;;;5032725;28;20108;-75
2022/05/26 04:24:36;;;;;;;7.60;2.40;;;;;;;;;;5032869;28;20044;-75
2022/05/26 04:27:01;;;;;;;4.07;1.92;;;;;;;;;;5030947;28;20029;-74
2022/05/26 04:29:28;;;;;;;2.55;2.35;;;;;;;;;;5032539;28;20025;-75
2022/05/26 04:31:53;;;;;;;3.03;2.83;;;;;;;;;;5030727;28;20025;-75
2022/05/26 04:34:19;;;;;;;2.80;2.25;;;;;;;;;;5031016;28;20548;-75
2022/05/26 04:36:45;;;;;;;3.75;2.78;;;;;;;;;;5032126;28;20117;-75
2022/05/26 04:39:11;;;;;;;4.13;2.33;;;;;;;;;;5031078;28;20072;-73
2022/05/26 04:41:36;;;;;;;3.97;2.15;;;;;;;;;;5032329;28;20513;-75
2022/05/26 04:44:02;;;;;;;2.22;1.92;;;;;;;;;;5032032;28;20025;-74
2022/05/26 04:46:28;;;;;;;2.80;2.10;;;;;;;;;;5030900;28;20479;-75
2022/05/26 04:48:53;;;;;;;3.65;2.60;;;;;;;;;;5031661;28;20030;-75
2022/05/26 04:51:19;;;;;;;8.25;2.25;;;;;;;;;;5030831;28;20409;-76
2022/05/26 04:53:45;;;;;;;2.60;2.10;;;;;;;;;;5030325;28;20477;-72
2022/05/26 04:56:11;;;;;;;3.55;2.30;;;;;;;;;;5030513;28;20473;-75
2022/05/26 04:58:37;;;;;;;4.55;2.08;;;;;;;;;;5031742;28;20029;-74
2022/05/26 05:01:16;;;;;;;6.57;3.17;;;;;;;;;;5032052;28;20049;-75
2022/05/26 05:03:42;;;;;;;2.67;2.05;;;;;;;;;;5030696;28;20033;-73
2022/05/26 05:06:07;;;;;;;5.43;2.17;;;;;;;;;;5030151;28;20025;-74
2022/05/26 05:08:33;;;;;;;2.80;1.55;;;;;;;;;;5030878;28;20563;-75
2022/05/26 05:10:59;;;;;;;1.98;1.70;;;;;;;;;;5031617;28;20029;-75
2022/05/26 05:13:24;;;;;;;2.03;1.83;;;;;;;;;;5031741;28;20037;-74
2022/05/26 05:15:59;;;;;;;2.33;1.48;;;;;;;;;;5021149;28;20044;-76
2022/05/26 05:18:25;;;;;;;2.70;1.95;;;;;;;;;;5011751;28;20095;-75
2022/05/26 05:20:54;;;;;;;2.58;1.80;;;;;;;;;;5027740;28;20440;-73
2022/05/26 05:23:20;;;;;;;5.63;2.17;;;;;;;;;;5036498;28;20029;-75
2022/05/26 05:25:49;;;;;;;2.40;2.08;;;;;;;;;;5034850;28;20033;-74
2022/05/26 05:28:26;;;;;;;5.10;1.95;;;;;;;;;;5040552;28;20029;-75
2022/05/26 05:31:14;;;;;;;3.53;1.73;;;;;;;;;;5043228;28;20036;-75
2022/05/26 05:33:48;;;;;;;4.30;1.70;;;;;;;;;;5019013;28;20400;-75
2022/05/26 05:36:28;;;;;;;5.28;1.85;;;;;;;;;;5039843;28;20029;-75
2022/05/26 05:38:55;;;;;;;3.53;1.52;;;;;;;;;;5043449;28;20033;-74
2022/05/26 05:41:21;;;;;;;4.80;2.15;;;;;;;;;;5032176;28;20083;-74
2022/05/26 05:43:48;;;;;;;2.55;1.70;;;;;;;;;;5041227;28;20464;-74
2022/05/26 05:46:19;;;;;;;5.63;1.77;;;;;;;;;;5021984;28;20079;-73
2022/05/26 05:48:46;;;;;;;4.68;1.67;;;;;;;;;;5009534;28;20029;-75
2022/05/26 05:51:13;;;;;;;4.53;1.75;;;;;;;;;;5032961;28;20079;-74
2022/05/26 05:53:39;;;;;;;2.30;1.40;;;;;;;;;;5042832;28;20035;-74
2022/05/26 05:56:05;;;;;;;5.28;1.85;;;;;;;;;;5043608;28;20324;-74
2022/05/26 05:58:30;;;;;;;2.78;1.58;;;;;;;;;;5038889;28;20064;-74
2022/05/26 06:00:56;;;;;;;12.65;2.35;;;;;;;;;;5034850;28;20115;-74
2022/05/26 06:03:22;;;;;;;2.42;1.45;;;;;;;;;;5034471;28;20033;-75
2022/05/26 06:05:48;;;;;;;2.78;1.35;;;;;;;;;;5040571;28;20116;-74
2022/05/26 06:08:13;;;;;;;3.47;1.52;;;;;;;;;;5028502;28;20024;-74
2022/05/26 06:10:39;;;;;;;4.38;1.70;;;;;;;;;;5039946;28;20388;-75
2022/05/26 06:13:05;;;;;;;3.55;1.45;;;;;;;;;;5048349;28;20032;-75
2022/05/26 06:15:32;;;;;;;4.53;1.55;;;;;;;;;;5026280;28;20062;-75
2022/05/26 06:17:58;;;;;;;7.68;4.13;;;;;;;;;;5034026;28;20095;-75
2022/05/26 06:20:23;;;;;;;5.85;1.33;;;;;;;;;;5038878;28;20390;-75
2022/05/26 06:22:49;;;;;;;2.38;1.10;;;;;;;;;;5041542;28;20130;-76
2022/05/26 06:25:18;;;;;;;2.97;1.23;;;;;;;;;;5032042;28;20029;-75
2022/05/26 06:30:30;;;;;;;1.40;0.90;;;;;;;;;;5026342;28;20048;-75
2022/05/26 06:38:47;;;;;;;1.35;0.93;;;;;;;;;;5025931;28;20025;-75
2022/05/26 06:44:03;;;;;;;2.08;1.23;;;;;;;;;;5032433;28;20539;-76
2022/05/26 06:46:29;;;;;;;1.48;1.00;;;;;;;;;;5025002;28;20040;-76
2022/05/26 06:48:55;;;;;;;1.50;0.95;;;;;;;;;;5026765;28;20474;-75
2022/05/26 06:51:24;;;;;;;3.05;1.08;;;;;;;;;;5026812;28;20438;-76
2022/05/26 06:53:51;;;;;;;7.05;1.00;;;;;;;;;;5022811;28;20036;-76
2022/05/26 06:56:16;;;;;;;2.72;0.82;;;;;;;;;;5025444;28;20036;-75
2022/05/26 06:58:42;;;;;;;3.67;0.70;;;;;;;;;;5022841;28;20038;-78
2022/05/26 07:01:07;;;;;;;2.22;1.02;;;;;;;;;;5022569;28;20033;-76
2022/05/26 07:03:34;;;;;;;2.75;0.90;;;;;;;;;;5039539;28;20030;-76
2022/05/26 07:06:00;;;;;;;4.47;1.00;;;;;;;;;;5024399;28;20033;-76
2022/05/26 07:08:26;;;;;;;2.40;0.80;;;;;;;;;;5032420;28;20036;-74
2022/05/26 07:10:54;;;;;;;0.98;0.70;;;;;;;;;;5024461;28;20022;-77
2022/05/26 07:13:20;;;;;;;2.72;0.70;;;;;;;;;;5039127;28;20109;-74
2022/05/26 07:15:47;;;;;;;4.65;1.15;;;;;;;;;;5025063;28;20033;-73
2022/05/26 07:18:13;;;;;;;1.80;0.90;;;;;;;;;;5003224;28;20061;-73
2022/05/26 07:20:39;;;;;;;2.45;0.80;;;;;;;;;;5036929;28;20062;-75
2022/05/26 07:23:08;;;;;;;0.93;0.70;;;;;;;;;;5028846;28;20068;-74
2022/05/26 07:25:34;;;;;;;2.42;0.90;;;;;;;;;;5064968;28;20033;-74
2022/05/26 07:28:00;;;;;;;3.15;0.80;;;;;;;;;;5035549;28;20232;-73
2022/05/26 07:30:25;;;;;;;3.70;1.10;;;;;;;;;;5033047;28;20405;-74
2022/05/26 07:32:51;;;;;;;1.42;0.85;;;;;;;;;;5032881;28;20028;-74
2022/05/26 07:35:16;;;;;;;4.13;1.10;;;;;;;;;;5027134;28;20473;-75
2022/05/26 07:43:10;;;;;;;3.33;0.70;;;;;;;;;;5032586;28;20102;-74
2022/05/26 07:45:38;;;;;;;1.67;0.85;;;;;;;;;;5032604;28;20457;-76
2022/05/26 07:48:04;;;;;;;3.83;0.80;;;;;;;;;;5018159;28;20291;-75
2022/05/26 07:50:30;;;;;;;3.00;1.42;;;;;;;;;;5041502;28;20041;-74
2022/05/26 07:52:56;;;;;;;6.10;0.88;;;;;;;;;;5027492;28;20438;-75
2022/05/26 07:55:21;;;;;;;1.08;0.77;;;;;;;;;;5028176;28;20516;-74
2022/05/26 07:57:47;;;;;;;1.73;0.90;;;;;;;;;;5039750;28;20047;-76
2022/05/26 08:00:15;;;;;;;4.18;0.68;;;;;;;;;;5032865;28;20481;-74
2022/05/26 08:02:41;;;;;;;2.88;1.00;;;;;;;;;;5023363;28;21278;-78
2022/05/26 08:05:08;;;;;;;1.25;0.60;;;;;;;;;;5072814;28;20031;-75
2022/05/26 08:07:34;;;;;;;2.10;0.50;;;;;;;;;;5039779;28;20047;-76
2022/05/26 08:10:00;;;;;;;4.80;0.80;;;;;;;;;;5037911;28;20469;-76
2022/05/26 08:12:26;;;;;;;3.58;2.00;;;;;;;;;;5037879;28;20544;-76
2022/05/26 08:14:52;;;;;;;1.38;0.90;;;;;;;;;;5048299;28;20501;-76
2022/05/26 08:17:25;;;;;;;0.60;0.60;;;;;;;;;;5026001;28;20132;-76
2022/05/26 08:19:52;;;;;;;1.90;0.50;;;;;;;;;;5029177;28;20402;-74
2022/05/26 08:22:18;;;;;;;4.93;0.77;;;;;;;;;;5027950;28;20414;-76
2022/05/26 08:24:56;;;;;;;0.52;0.50;;;;;;;;;;5017911;28;20044;-76
2022/05/26 08:27:21;;;;;;;1.25;0.55;;;;;;;;;;5032511;28;20029;-77
2022/05/26 08:29:47;;;;;;;2.70;1.63;;;;;;;;;;5035495;28;20552;-75
2022/05/26 08:32:15;;;;;;;1.27;0.40;;;;;;;;;;5029113;28;20052;-75
2022/05/26 08:34:41;;;;;;;5.10;0.80;;;;;;;;;;5023475;28;20022;-76
2022/05/26 08:37:17;;;;;;;3.50;0.60;;;;;;;;;;5047994;28;20025;-77
2022/05/26 08:39:44;;;;;;;1.10;0.77;;;;;;;;;;5035812;28;20033;-76
2022/05/26 08:42:20;;;;;;;2.53;0.80;;;;;;;;;;5020186;28;20087;-76
2022/05/26 08:44:47;;;;;;;1.80;0.75;;;;;;;;;;5029659;28;20362;-77
2022/05/26 08:47:22;;;;;;;1.48;0.50;;;;;;;;;;5032955;28;20017;-76
2022/05/26 08:49:59;;;;;;;3.67;1.00;;;;;;;;;;5004040;28;20108;-77
2022/05/26 08:52:45;;;;;;;3.45;0.85;;;;;;;;;;5026966;28;20079;-76
2022/05/26 08:55:35;;;;;;;5.55;1.20;;;;;;;;;;5029589;28;20029;-76
2022/05/26 08:58:25;;;;;;;2.80;0.60;;;;;;;;;;5018464;28;20241;-77
2022/05/26 09:00:53;;;;;;;3.63;0.80;;;;;;;;;;5023328;28;20029;-76
2022/05/26 09:03:27;;;;;;;1.52;0.60;;;;;;;;;;5013242;28;20045;-76
2022/05/26 09:06:06;;;;;;;1.42;0.60;;;;;;;;;;5024859;28;20028;-75
2022/05/26 09:14:18;;;;;;;2.70;0.70;;;;;;;;;;5029429;28;20052;-75
2022/05/26 09:16:44;;;;;;;1.92;0.70;;;;;;;;;;5040913;28;20062;-75
2022/05/26 09:19:18;;;;;;;2.45;0.90;;;;;;;;;;5037568;28;20393;-75
2022/05/26 09:21:45;;;;;;;2.35;0.90;;;;;;;;;;5027408;28;20030;-73
2022/05/26 09:24:29;;;;;;;4.43;0.90;;;;;;;;;;5029152;28;20091;-75
2022/05/26 09:27:04;;;;;;;1.25;0.73;;;;;;;;;;5025956;28;20044;-76
2022/05/26 09:29:33;;;;;;;2.10;1.10;;;;;;;;;;5028639;28;20290;-76
2022/05/26 09:32:02;;;;;;;3.17;1.00;;;;;;;;;;5029910;28;20041;-75
2022/05/26 09:34:32;;;;;;;3.13;1.08;;;;;;;;;;5042671;28;20024;-75
2022/05/26 09:37:07;;;;;;;0.77;0.77;;;;;;;;;;5017286;28;20030;-76
2022/05/26 09:39:41;;;;;;;5.53;1.20;;;;;;;;;;5025454;28;20021;-76
2022/05/26 09:42:41;;;;;;;3.95;0.70;;;;;;;;;;5029330;28;20033;-77
2022/05/26 09:45:11;;;;;;;1.77;0.70;;;;;;;;;;5025895;28;20120;-77
2022/05/26 09:47:58;;;;;;;2.33;1.20;;;;;;;;;;5027730;28;20025;-76
2022/05/26 09:51:05;;;;;;;1.38;0.90;;;;;;;;;;5038282;28;20392;-78
2022/05/26 09:53:35;;;;;;;2.05;0.68;;;;;;;;;;5005379;28;20057;-76
2022/05/26 09:56:02;;;;;;;1.83;0.60;;;;;;;;;;5005318;28;20874;-76
2022/05/26 09:58:34;;;;;;;1.90;0.65;;;;;;;;;;5019794;28;20381;-75
2022/05/26 10:01:03;;;;;;;0.50;0.40;;;;;;;;;;5016185;28;20033;-76
2022/05/26 10:03:54;;;;;;;2.65;0.55;;;;;;;;;;5012084;28;20037;-74
2022/05/26 10:06:29;;;;;;;4.63;0.60;;;;;;;;;;5028636;28;20022;-77
2022/05/26 10:08:58;;;;;;;1.05;0.55;;;;;;;;;;5013258;28;20018;-77
2022/05/26 10:11:45;;;;;;;1.98;0.60;;;;;;;;;;5028120;28;20031;-76
2022/05/26 10:14:35;;;;;;;2.15;0.70;;;;;;;;;;5025370;28;20449;-76
2022/05/26 10:17:20;;;;;;;2.00;0.80;;;;;;;;;;5034647;28;20057;-73
2022/05/26 10:20:10;;;;;;;0.73;0.55;;;;;;;;;;5031239;28;20397;-74
2022/05/26 10:23:14;;;;;;;1.00;0.40;;;;;;;;;;5031260;28;20024;-76
2022/05/26 10:26:21;;;;;;;1.45;0.50;;;;;;;;;;5018780;28;20044;-77
2022/05/26 10:29:28;;;;;;;1.20;0.50;;;;;;;;;;5042434;28;20044;-77
2022/05/26 10:32:06;;;;;;;2.13;0.70;;;;;;;;;;5040095;28;20063;-76
2022/05/26 10:34:54;;;;;;;2.38;0.60;;;;;;;;;;5037062;28;20509;-76
2022/05/26 10:37:58;;;;;;;2.17;0.50;;;;;;;;;;5037397;28;20033;-76
2022/05/26 10:40:29;;;;;;;3.88;0.70;;;;;;;;;;5031703;28;20029;-75
2022/05/26 10:43:23;;;;;;;5.10;0.50;;;;;;;;;;5029172;28;20483;-76
2022/05/26 10:45:53;;;;;;;1.30;0.40;;;;;;;;;;5023867;28;20047;-75
2022/05/26 10:48:40;;;;;;;3.38;0.65;;;;;;;;;;5024065;28;20125;-77
2022/05/26 10:51:15;;;;;;;4.15;0.70;;;;;;;;;;5033234;28;20125;-78
2022/05/26 10:53:44;;;;;;;0.63;0.43;;;;;;;;;;5035888;28;20052;-76
2022/05/26 10:56:31;;;;;;;1.88;0.63;;;;;;;;;;5029007;28;20066;-76
2022/05/26 10:59:07;;;;;;;1.88;0.50;;;;;;;;;;5033056;28;20061;-77
2022/05/26 11:01:45;;;;;;;2.67;0.60;;;;;;;;;;5031081;28;20033;-75
2022/05/26 11:04:32;;;;;;;5.13;2.30;;;;;;;;;;5038583;28;20017;-75
2022/05/26 11:07:04;;;;;;;0.85;0.50;;;;;;;;;;5035536;28;20036;-76
2022/05/26 11:09:47;;;;;;;2.13;0.60;;;;;;;;;;5036535;28;20037;-76
2022/05/26 11:12:29;;;;;;;4.50;0.82;;;;;;;;;;5035309;28;20022;-77
2022/05/26 11:18:17;;;;;;;1.38;0.55;;;;;;;;;;5031323;28;20072;-77
2022/05/26 11:20:53;;;;;;;1.13;0.50;;;;;;;;;;5030441;28;20452;-77
2022/05/26 11:23:21;;;;;;;0.63;0.60;;;;;;;;;;5036507;28;20036;-75
2022/05/26 11:25:59;;;;;;;2.63;0.32;;;;;;;;;;5030662;28;20702;-78
2022/05/26 11:28:59;;;;;;;2.45;0.60;;;;;;;;;;5036381;28;20024;-76
2022/05/26 11:37:39;;;;;;;1.20;0.60;;;;;;;;;;5034555;28;20028;-77
2022/05/26 11:40:09;;;;;;;0.90;0.32;;;;;;;;;;5040184;28;20120;-77
2022/05/26 11:42:40;;;;;;;3.53;0.60;;;;;;;;;;5026629;28;20600;-75
2022/05/26 11:45:08;;;;;;;2.47;0.50;;;;;;;;;;5026958;28;20033;-76
2022/05/26 11:48:36;;;;;;;0.80;0.45;;;;;;;;;;5022984;28;20643;-76
2022/05/26 11:51:26;;;;;;;3.22;0.55;;;;;;;;;;4982642;28;20055;-77
2022/05/26 11:53:52;;;;;;;0.85;0.55;;;;;;;;;;5031461;28;20420;-76
2022/05/26 11:56:28;;;;;;;6.18;0.68;;;;;;;;;;5024870;28;20060;-76
2022/05/26 11:59:20;;;;;;;0.75;0.43;;;;;;;;;;5033649;28;20033;-77
2022/05/26 12:02:01;;;;;;;0.52;0.50;;;;;;;;;;5044642;28;20047;-77
2022/05/26 12:04:28;;;;;;;1.25;0.70;;;;;;;;;;5024693;28;20029;-75
2022/05/26 12:07:06;;;;;;;2.35;0.60;;;;;;;;;;5057012;28;20025;-74
2022/05/26 12:09:41;;;;;;;2.40;0.57;;;;;;;;;;5035859;28;20237;-75
2022/05/26 12:12:22;;;;;;;4.63;0.63;;;;;;;;;;5033217;28;20021;-77
2022/05/26 12:14:51;;;;;;;3.03;0.60;;;;;;;;;;5026798;28;20032;-77
2022/05/26 12:17:29;;;;;;;2.85;0.63;;;;;;;;;;5031225;28;20551;-76
2022/05/26 12:20:11;;;;;;;4.00;2.78;;;;;;;;;;5041030;28;20498;-75
2022/05/26 12:22:47;;;;;;;0.63;0.57;;;;;;;;;;5027628;28;20154;-76
2022/05/26 12:25:34;;;;;;;3.67;0.60;;;;;;;;;;5035958;28;20157;-76
2022/05/26 12:28:26;;;;;;;0.40;0.30;;;;;;;;;;5031035;28;20033;-77
2022/05/26 12:30:54;;;;;;;4.00;0.70;;;;;;;;;;5022684;28;20039;-77
2022/05/26 12:33:20;;;;;;;2.63;0.30;;;;;;;;;;5041061;28;20493;-75
2022/05/26 12:36:07;;;;;;;0.77;0.38;;;;;;;;;;5029003;28;20029;-74
2022/05/26 12:39:00;;;;;;;3.17;0.55;;;;;;;;;;5031721;28;20187;-76
2022/05/26 12:42:03;;;;;;;1.65;0.50;;;;;;;;;;5032576;28;20313;-75
2022/05/26 12:44:45;;;;;;;1.77;0.60;;;;;;;;;;5041676;28;20110;-75
2022/05/26 12:47:32;;;;;;;2.85;0.60;;;;;;;;;;5045007;28;20050;-77
2022/05/26 12:50:21;;;;;;;1.02;0.47;;;;;;;;;;5033672;28;20124;-74
2022/05/26 12:53:10;;;;;;;0.57;0.52;;;;;;;;;;5000232;28;20123;-77
2022/05/26 12:55:44;;;;;;;1.75;0.50;;;;;;;;;;5031502;28;20115;-78
2022/05/26 12:58:16;;;;;;;5.30;0.80;;;;;;;;;;5032874;28;20144;-75
2022/05/26 13:00:57;;;;;;;1.35;0.40;;;;;;;;;;5031666;28;20025;-80
2022/05/26 13:03:46;;;;;;;0.73;0.32;;;;;;;;;;5042980;28;20037;-77
2022/05/26 13:06:21;;;;;;;1.13;0.30;;;;;;;;;;5035594;28;20453;-76
2022/05/26 13:09:05;;;;;;;1.50;0.52;;;;;;;;;;5022922;28;20027;-76
2022/05/26 13:11:55;;;;;;;0.70;0.30;;;;;;;;;;5032086;28;20128;-76
2022/05/26 13:14:35;;;;;;;1.25;0.30;;;;;;;;;;5038761;28;20024;-77
2022/05/26 13:17:10;;;;;;;2.42;0.30;;;;;;;;;;5044411;28;20052;-77
2022/05/26 13:19:43;;;;;;;1.50;0.50;;;;;;;;;;5046890;28;20037;-76
2022/05/26 13:22:26;;;;;;;2.15;0.77;;;;;;;;;;5042703;28;20503;-75
2022/05/26 13:25:15;;;;;;;4.03;0.47;;;;;;;;;;5036993;28;20462;-76
2022/05/26 13:27:43;;;;;;;4.30;0.50;;;;;;;;;;5042111;28;20507;-77
2022/05/26 13:33:08;;;;;;;0.45;0.25;;;;;;;;;;5025366;28;20056;-75
2022/05/26 13:35:43;;;;;;;0.35;0.30;;;;;;;;;;5032243;28;20091;-75
2022/05/26 13:38:23;;;;;;;2.08;0.32;;;;;;;;;;5031994;28;20049;-75
2022/05/26 13:40:49;;;;;;;1.33;0.40;;;;;;;;;;5020957;28;20079;-76
2022/05/26 13:43:17;;;;;;;2.05;0.65;;;;;;;;;;5033294;28;20026;-75
2022/05/26 13:45:43;;;;;;;0.88;0.40;;;;;;;;;;5010319;28;20477;-76
2022/05/26 13:48:29;;;;;;;2.58;0.30;;;;;;;;;;5026623;28;20076;-75
2022/05/26 13:51:22;;;;;;;4.03;1.33;;;;;;;;;;5026483;28;20037;-76
2022/05/26 13:54:12;;;;;;;0.65;0.50;;;;;;;;;;5041167;28;20118;-76
2022/05/26 13:56:39;;;;;;;2.75;0.77;;;;;;;;;;5038859;28;20033;-76
2022/05/26 13:59:09;;;;;;;1.42;0.50;;;;;;;;;;5039898;28;20075;-77
2022/05/26 14:01:57;;;;;;;2.25;0.50;;;;;;;;;;5044388;28;20062;-78
2022/05/26 14:04:56;;;;;;;0.95;0.60;;;;;;;;;;5018646;28;20070;-78
2022/05/26 14:07:36;;;;;;;4.22;0.65;;;;;;;;;;5048142;28;20136;-77
2022/05/26 14:10:07;;;;;;;1.52;0.45;;;;;;;;;;5048999;28;20040;-76
2022/05/26 14:12:35;;;;;;;3.45;0.60;;;;;;;;;;5049321;28;20029;-76
2022/05/26 14:15:01;;;;;;;0.47;0.40;;;;;;;;;;5037397;28;20053;-76
2022/05/26 14:17:39;;;;;;;3.65;0.50;;;;;;;;;;5040800;28;20126;-78
2022/05/26 14:20:20;;;;;;;2.13;0.40;;;;;;;;;;5042254;28;20044;-76
2022/05/26 14:22:49;;;;;;;1.75;0.50;;;;;;;;;;5018583;28;20036;-76
2022/05/26 14:25:21;;;;;;;2.78;0.90;;;;;;;;;;5048228;28;20037;-76
2022/05/26 14:27:49;;;;;;;1.38;0.40;;;;;;;;;;5040898;28;20033;-77
2022/05/26 14:30:37;;;;;;;2.88;0.80;;;;;;;;;;5044386;28;20481;-77
2022/05/26 14:33:12;;;;;;;1.70;0.60;;;;;;;;;;5045212;28;20473;-75
2022/05/26 14:35:38;;;;;;;2.05;0.60;;;;;;;;;;5046877;28;20480;-76
2022/05/26 14:38:03;;;;;;;1.25;0.63;;;;;;;;;;5047142;28;20075;-76
2022/05/26 14:40:29;;;;;;;0.98;0.40;;;;;;;;;;5032991;28;20028;-78
2022/05/26 14:42:54;;;;;;;0.70;0.40;;;;;;;;;;5039242;28;20045;-76
2022/05/26 14:45:21;;;;;;;1.23;0.50;;;;;;;;;;5040237;28;20061;-76
2022/05/26 14:47:49;;;;;;;1.20;0.43;;;;;;;;;;5047712;28;20028;-76
2022/05/26 14:50:16;;;;;;;0.30;0.30;;;;;;;;;;5031451;28;20592;-77
2022/05/26 14:52:49;;;;;;;1.27;0.50;;;;;;;;;;5038525;28;20044;-76
2022/05/26 14:55:29;;;;;;;1.52;0.40;;;;;;;;;;5029039;28;20032;-76
2022/05/26 14:58:03;;;;;;;2.38;0.50;;;;;;;;;;5030848;28;20037;-76
2022/05/26 15:00:32;;;;;;;0.43;0.30;;;;;;;;;;5042948;28;20068;-76
2022/05/26 15:02:58;;;;;;;2.78;0.45;;;;;;;;;;5048980;28;20734;-78
2022/05/26 15:05:24;;;;;;;1.45;0.43;;;;;;;;;;5048314;28;20028;-76
2022/05/26 15:07:51;;;;;;;2.58;0.40;;;;;;;;;;5048872;28;20115;-77
2022/05/26 15:10:19;;;;;;;0.90;0.57;;;;;;;;;;5036981;28;20017;-76
2022/05/26 15:12:46;;;;;;;1.13;0.40;;;;;;;;;;5045288;28;20032;-77
2022/05/26 15:15:14;;;;;;;0.55;0.45;;;;;;;;;;5049249;28;20028;-76
2022/05/26 15:17:41;;;;;;;0.70;0.25;;;;;;;;;;5047498;28;20041;-77
2022/05/26 15:20:10;;;;;;;4.97;0.40;;;;;;;;;;5047568;28;20457;-77
2022/05/26 15:22:37;;;;;;;1.52;0.40;;;;;;;;;;5048914;28;20037;-78
2022/05/26 15:25:08;;;;;;;1.85;0.70;;;;;;;;;;5029477;28;20025;-75
2022/05/26 15:27:34;;;;;;;3.20;0.70;;;;;;;;;;5028199;28;20017;-77
2022/05/26 15:30:00;;;;;;;0.85;0.50;;;;;;;;;;5028930;28;20095;-75
2022/05/26 15:32:34;;;;;;;1.95;0.30;;;;;;;;;;5064154;28;20095;-76
2022/05/26 15:35:00;;;;;;;5.70;3.67;;;;;;;;;;5048159;28;20036;-75
2022/05/26 15:37:26;;;;;;;1.05;0.40;;;;;;;;;;5044745;28;20044;-75
2022/05/26 15:39:53;;;;;;;1.23;0.40;;;;;;;;;;5047476;28;20029;-77
2022/05/26 15:42:20;;;;;;;0.55;0.20;;;;;;;;;;5049144;28;20515;-75
2022/05/26 15:44:46;;;;;;;2.65;0.57;;;;;;;;;;5048092;28;20060;-77
2022/05/26 15:47:13;;;;;;;0.45;0.40;;;;;;;;;;5047124;28;20069;-78
2022/05/26 15:49:46;;;;;;;0.95;0.40;;;;;;;;;;5047734;28;20094;-78
2022/05/26 15:52:13;;;;;;;4.18;1.08;;;;;;;;;;5030331;28;20083;-76
2022/05/26 15:54:40;;;;;;;0.47;0.10;;;;;;;;;;5047706;28;20109;-77
2022/05/26 15:57:06;;;;;;;1.52;0.50;;;;;;;;;;5047085;28;20025;-75
2022/05/26 15:59:32;;;;;;;1.55;0.70;;;;;;;;;;5048576;28;20040;-75
2022/05/26 16:02:01;;;;;;;1.80;0.60;;;;;;;;;;5048771;28;20044;-75
2022/05/26 16:04:27;;;;;;;1.05;1.00;;;;;;;;;;5047503;28;20025;-77
2022/05/26 16:06:53;;;;;;;0.95;0.40;;;;;;;;;;5050598;28;20025;-77